createdAt,value
2023-01-28T00:03:51.853Z,2.31
2023-01-28T00:08:53.298Z,2.09
2023-01-28T00:13:55.244Z,1.95
2023-01-28T00:18:56.815Z,2.03
2023-01-28T00:23:58.536Z,2.03
2023-01-28T00:28:59.903Z,1.85
2023-01-28T00:34:01.652Z,1.95
2023-01-28T00:39:03.115Z,1.84
2023-01-28T00:44:05.289Z,1.86
2023-01-28T00:49:06.652Z,1.91
2023-01-28T00:54:08.220Z,1.76
2023-01-28T00:59:09.631Z,1.71
2023-01-28T01:04:11.069Z,1.72
2023-01-28T01:09:13.583Z,1.73
2023-01-28T01:14:15.033Z,1.60
2023-01-28T01:19:16.373Z,1.61
2023-01-28T01:24:17.927Z,1.46
2023-01-28T01:29:19.379Z,1.48
2023-01-28T01:34:20.824Z,1.37
2023-01-28T01:39:22.314Z,1.32
2023-01-28T01:45:02.238Z,1.36
2023-01-28T01:50:14.559Z,1.34
2023-01-28T01:55:20.908Z,1.17
2023-01-28T02:00:22.425Z,0.95
2023-01-28T02:05:23.904Z,0.95
2023-01-28T02:10:25.497Z,0.84
2023-01-28T02:15:27.211Z,0.92
2023-01-28T02:20:51.730Z,0.73
2023-01-28T02:26:17.068Z,0.71
2023-01-28T02:31:27.912Z,0.66
2023-01-28T02:36:41.644Z,0.70
2023-01-28T02:41:50.168Z,0.55
2023-01-28T02:46:53.012Z,0.60
2023-01-28T02:52:22.372Z,0.53
2023-01-28T02:57:51.810Z,0.51
2023-01-28T03:03:15.114Z,0.59
2023-01-28T03:08:17.470Z,0.56
2023-01-28T03:13:18.867Z,0.63
2023-01-28T03:18:25.202Z,0.65
2023-01-28T03:23:34.817Z,0.62
2023-01-28T03:28:38.483Z,0.77
2023-01-28T03:33:41.995Z,0.79
2023-01-28T03:38:43.738Z,0.72
2023-01-28T03:43:45.374Z,0.80
2023-01-28T03:48:46.833Z,0.78
2023-01-28T03:53:48.368Z,0.79
2023-01-28T03:58:49.806Z,0.91
2023-01-28T04:03:51.521Z,0.96
2023-01-28T04:13:54.791Z,1.02
2023-01-28T04:18:56.157Z,1.09
2023-01-28T04:23:57.650Z,1.00
2023-01-28T04:28:59.108Z,1.15
2023-01-28T04:34:00.743Z,1.00
2023-01-28T04:39:02.336Z,0.99
2023-01-28T04:44:03.814Z,0.98
2023-01-28T04:49:05.155Z,0.99
2023-01-28T04:54:07.073Z,1.02
2023-01-28T04:59:10.467Z,1.04
2023-01-28T05:04:11.973Z,1.14
2023-01-28T05:09:13.499Z,1.21
2023-01-28T05:14:17.401Z,1.03
2023-01-28T05:19:18.877Z,1.03
2023-01-28T05:24:20.440Z,1.01
2023-01-28T05:29:22.023Z,1.08
2023-01-28T05:34:23.839Z,1.08
2023-01-28T05:39:27.080Z,1.10
2023-01-28T05:44:28.451Z,1.11
2023-01-28T05:49:29.977Z,1.07
2023-01-28T05:54:31.430Z,1.17
2023-01-28T05:59:32.853Z,1.04
2023-01-28T06:04:34.265Z,1.04
2023-01-28T06:09:35.722Z,1.08
2023-01-28T06:14:37.119Z,0.98
2023-01-28T06:19:41.282Z,1.00
2023-01-28T06:24:42.778Z,0.98
2023-01-28T06:29:44.205Z,0.94
2023-01-28T06:34:45.578Z,0.99
2023-01-28T06:39:46.987Z,0.96
2023-01-28T06:44:51.108Z,1.02
2023-01-28T06:49:52.530Z,1.05
2023-01-28T06:54:53.917Z,1.02
2023-01-28T06:59:55.427Z,0.95
2023-01-28T07:04:57.180Z,1.04
2023-01-28T07:09:59.090Z,1.15
2023-01-28T07:15:02.746Z,1.00
2023-01-28T07:20:05.013Z,0.96
2023-01-28T07:25:07.824Z,1.09
2023-01-28T07:30:09.980Z,1.15
2023-01-28T07:35:12.351Z,1.04
2023-01-28T07:40:14.005Z,1.09
2023-01-28T07:45:16.133Z,1.18
2023-01-28T07:50:17.735Z,1.22
2023-01-28T07:55:19.357Z,1.20
2023-01-28T08:00:25.601Z,1.31
2023-01-28T08:05:36.553Z,1.26
2023-01-28T08:10:38.915Z,1.32
2023-01-28T08:15:40.703Z,1.33
2023-01-28T08:20:45.409Z,1.29
2023-01-28T08:25:47.838Z,1.27
2023-01-28T08:30:51.813Z,1.39
2023-01-28T08:35:53.220Z,1.47
2023-01-28T08:40:56.508Z,1.54
2023-01-28T08:45:59.577Z,1.56
2023-01-28T08:51:03.504Z,1.70
2023-01-28T08:56:05.343Z,1.58
2023-01-28T09:01:07.076Z,1.73
2023-01-28T09:06:08.640Z,1.70
2023-01-28T09:11:10.750Z,1.83
2023-01-28T09:16:12.241Z,1.96
2023-01-28T09:21:13.896Z,2.01
2023-01-28T09:26:15.341Z,1.95
2023-01-28T09:31:16.804Z,2.05
2023-01-28T09:36:18.363Z,2.05
2023-01-28T09:41:25.992Z,2.09
2023-01-28T09:46:35.257Z,2.08
2023-01-28T09:51:42.733Z,2.05
2023-01-28T09:56:47.146Z,2.17
2023-01-28T10:02:00.976Z,2.01
2023-01-28T10:07:34.766Z,2.05
2023-01-28T10:12:54.190Z,2.22
2023-01-28T10:18:16.006Z,2.39
2023-01-28T10:23:30.308Z,2.33
2023-01-28T10:28:34.851Z,2.44
2023-01-28T10:33:37.900Z,2.52
2023-01-28T10:38:39.638Z,2.53
2023-01-28T10:43:42.655Z,2.63
2023-01-28T10:48:59.376Z,2.79
2023-01-28T10:54:03.556Z,2.63
2023-01-28T10:59:29.608Z,2.56
2023-01-28T11:04:36.440Z,2.56
2023-01-28T11:09:38.320Z,2.63
2023-01-28T11:14:49.734Z,2.71
2023-01-28T11:19:53.527Z,2.67
2023-01-28T11:24:55.315Z,2.86
2023-01-28T11:29:58.893Z,2.89
2023-01-28T11:35:00.540Z,2.85
2023-01-28T11:40:20.676Z,2.83
2023-01-28T11:45:58.714Z,2.61
2023-01-28T11:51:04.788Z,2.69
2023-01-28T11:56:32.020Z,2.70
2023-01-28T12:01:54.384Z,2.56
2023-01-28T12:07:42.480Z,2.46
2023-01-28T12:13:14.230Z,2.71
2023-01-28T12:18:41.219Z,2.82
2023-01-28T12:23:51.607Z,2.89
2023-01-28T12:29:08.456Z,2.83
2023-01-28T12:34:51.828Z,2.90
2023-01-28T12:40:20.824Z,2.81
2023-01-28T12:45:33.168Z,2.85
2023-01-28T12:50:41.665Z,2.90
2023-01-28T12:55:47.769Z,3.06
2023-01-28T13:00:54.815Z,3.18
2023-01-28T13:06:02.333Z,3.10
2023-01-28T13:11:05.987Z,3.10
2023-01-28T13:16:11.456Z,3.31
2023-01-28T13:21:12.825Z,3.32
2023-01-28T13:26:20.366Z,3.74
2023-01-28T13:31:25.194Z,3.89
2023-01-28T13:36:33.572Z,4.31
2023-01-28T13:41:38.040Z,4.64
2023-01-28T13:46:39.585Z,4.93
2023-01-28T13:51:53.870Z,5.34
2023-01-28T13:57:01.044Z,5.37
2023-01-28T14:02:28.844Z,5.58
2023-01-28T14:07:33.402Z,5.79
2023-01-28T14:12:56.192Z,5.67
2023-01-28T14:17:59.616Z,5.57
2023-01-28T14:23:03.469Z,5.27
2023-01-28T14:28:09.387Z,5.02
2023-01-28T14:33:12.309Z,4.69
2023-01-28T14:38:20.664Z,4.44
2023-01-28T14:43:24.799Z,4.20
2023-01-28T14:48:41.350Z,4.00
2023-01-28T14:53:46.078Z,3.90
2023-01-28T14:58:58.778Z,3.74
2023-01-28T15:04:00.181Z,3.54
2023-01-28T15:09:09.904Z,3.47
2023-01-28T15:14:29.463Z,3.36
2023-01-28T15:19:37.296Z,3.23
2023-01-28T15:24:42.864Z,3.00
2023-01-28T15:29:53.356Z,2.72
2023-01-28T15:34:55.264Z,2.52
2023-01-28T15:40:06.028Z,2.38
2023-01-28T15:45:18.570Z,2.31
2023-01-28T15:50:25.775Z,2.19
2023-01-28T15:55:35.807Z,2.05
2023-01-28T16:00:37.919Z,1.89
2023-01-28T16:05:42.628Z,1.75
2023-01-28T16:10:57.278Z,1.56
2023-01-28T16:16:01.157Z,1.32
2023-01-28T16:21:04.744Z,1.23
2023-01-28T16:26:24.315Z,1.13
2023-01-28T16:31:26.221Z,1.05
2023-01-28T16:36:27.727Z,0.87
2023-01-28T16:41:38.263Z,0.79
2023-01-28T16:46:40.092Z,0.79
2023-01-28T16:51:42.744Z,0.61
2023-01-28T16:56:46.309Z,0.63
2023-01-28T17:01:49.300Z,0.56
2023-01-28T17:06:52.597Z,0.50
2023-01-28T17:11:54.578Z,0.50
2023-01-28T17:16:55.947Z,0.36
2023-01-28T17:22:00.167Z,0.26
2023-01-28T17:27:02.381Z,0.08
2023-01-28T17:32:04.204Z,0.04
2023-01-28T17:37:05.705Z,-0.10
2023-01-28T17:42:07.659Z,-0.31
2023-01-28T17:47:09.307Z,-0.42
2023-01-28T17:52:10.732Z,-0.51
2023-01-28T17:57:12.073Z,-0.62
2023-01-28T18:02:14.320Z,-0.82
2023-01-28T18:07:16.272Z,-0.81
2023-01-28T18:12:17.773Z,-0.96
2023-01-28T18:17:19.195Z,-1.15
2023-01-28T18:22:20.781Z,-1.05
2023-01-28T18:27:22.164Z,-0.98
2023-01-28T18:32:23.555Z,-1.09
2023-01-28T18:37:25.071Z,-1.15
2023-01-28T18:42:26.460Z,-1.19
2023-01-28T18:47:27.894Z,-1.20
2023-01-28T18:52:29.243Z,-1.27
2023-01-28T18:57:30.837Z,-1.35
2023-01-28T19:02:32.319Z,-1.40
2023-01-28T19:07:33.809Z,-1.40
2023-01-28T19:12:35.204Z,-1.49
2023-01-28T19:17:37.327Z,-1.48
2023-01-28T19:22:40.786Z,-1.59
2023-01-28T19:27:43.373Z,-1.61
2023-01-28T19:32:44.859Z,-1.72
2023-01-28T19:37:46.414Z,-1.69
2023-01-28T19:42:47.835Z,-1.82
2023-01-28T19:47:49.251Z,-1.82
2023-01-28T19:52:50.760Z,-1.88
2023-01-28T19:57:52.204Z,-1.95
2023-01-28T20:02:54.180Z,-1.98
2023-01-28T20:07:55.610Z,-2.04
2023-01-28T20:12:57.255Z,-2.07
2023-01-28T20:17:58.717Z,-2.14
2023-01-28T20:23:01.060Z,-2.17
2023-01-28T20:28:02.479Z,-2.19
2023-01-28T20:33:03.914Z,-2.23
2023-01-28T20:38:05.786Z,-2.28
2023-01-28T20:43:07.220Z,-2.30
2023-01-28T20:48:08.780Z,-2.35
2023-01-28T20:53:11.917Z,-2.38
2023-01-28T20:58:13.404Z,-2.44
2023-01-28T21:03:17.262Z,-2.43
2023-01-28T21:08:19.028Z,-2.46
2023-01-28T21:13:20.430Z,-2.54
2023-01-28T21:18:22.431Z,-2.56
2023-01-28T21:23:26.446Z,-2.57
2023-01-28T21:28:28.191Z,-2.64
2023-01-28T21:33:34.182Z,-2.64
2023-01-28T21:38:36.991Z,-2.70
2023-01-28T21:43:38.420Z,-2.79
2023-01-28T21:48:39.972Z,-2.74
2023-01-28T21:53:42.060Z,-2.82
2023-01-28T21:58:43.527Z,-2.87
2023-01-28T22:03:45.013Z,-2.87
2023-01-28T22:08:46.539Z,-2.90
2023-01-28T22:13:50.296Z,-3.04
2023-01-28T22:19:02.707Z,-3.00
2023-01-28T22:24:08.475Z,-3.00
2023-01-28T22:29:11.228Z,-3.05
2023-01-28T22:34:13.351Z,-3.13
2023-01-28T22:39:16.944Z,-3.15
2023-01-28T22:44:19.333Z,-3.20
2023-01-28T22:49:21.158Z,-3.25
2023-01-28T22:54:22.607Z,-3.19
2023-01-28T22:59:24.024Z,-3.28
2023-01-28T23:04:25.425Z,-3.25
2023-01-28T23:09:26.987Z,-3.31
2023-01-28T23:14:28.388Z,-3.38
2023-01-28T23:19:30.032Z,-3.37
2023-01-28T23:24:32.101Z,-3.40
2023-01-28T23:29:33.606Z,-3.47
2023-01-28T23:34:38.134Z,-3.52
2023-01-28T23:39:40.171Z,-3.62
2023-01-28T23:44:41.898Z,-3.58
2023-01-28T23:49:43.295Z,-3.59
2023-01-28T23:54:44.841Z,-3.70
2023-01-28T23:59:46.224Z,-3.65
